createdAt,value
2019-01-03T00:04:43.148Z,1.87
2019-01-03T00:09:58.543Z,2.00
2019-01-03T00:15:19.536Z,2.20
2019-01-03T00:20:39.288Z,2.00
2019-01-03T00:26:10.319Z,2.07
2019-01-03T00:31:27.236Z,1.83
2019-01-03T00:36:49.277Z,1.53
2019-01-03T00:42:09.566Z,1.67
2019-01-03T00:47:30.824Z,1.90
2019-01-03T00:52:54.569Z,1.50
2019-01-03T00:58:15.275Z,1.77
2019-01-03T01:03:32.269Z,1.90
2019-01-03T01:08:54.973Z,2.17
2019-01-03T01:14:19.107Z,1.90
2019-01-03T01:19:43.886Z,1.80
2019-01-03T01:25:04.610Z,1.60
2019-01-03T01:30:45.209Z,2.43
2019-01-03T01:36:05.900Z,1.87
2019-01-03T01:41:20.701Z,1.80
2019-01-03T01:46:46.078Z,2.37
2019-01-03T01:52:02.934Z,1.63
2019-01-03T01:57:24.459Z,1.73
2019-01-03T02:02:45.109Z,2.00
2019-01-03T02:08:07.439Z,1.90
2019-01-03T02:13:31.268Z,2.27
2019-01-03T02:18:52.124Z,1.60
2019-01-03T02:24:12.353Z,1.63
2019-01-03T02:29:40.936Z,1.97
2019-01-03T02:35:02.280Z,2.03
2019-01-03T02:40:23.579Z,1.50
2019-01-03T02:46:03.463Z,1.50
2019-01-03T02:51:24.142Z,1.80
2019-01-03T02:56:48.952Z,1.83
2019-01-03T03:02:09.912Z,1.70
2019-01-03T03:07:27.557Z,1.80
2019-01-03T03:12:40.134Z,1.70
2019-01-03T03:18:01.682Z,1.70
2019-01-03T03:23:24.479Z,1.50
2019-01-03T03:28:45.411Z,2.03
2019-01-03T03:34:15.388Z,1.60
2019-01-03T03:39:36.549Z,1.37
2019-01-03T03:44:58.413Z,1.83
2019-01-03T03:50:13.995Z,1.43
2019-01-03T03:55:27.698Z,1.50
2019-01-03T04:00:48.111Z,1.80
2019-01-03T04:06:08.977Z,2.00
2019-01-03T04:11:32.298Z,1.93
2019-01-03T04:17:09.692Z,1.83
2019-01-03T04:22:36.494Z,1.50
2019-01-03T04:27:57.385Z,1.90
2019-01-03T04:33:13.888Z,1.90
2019-01-03T04:38:30.402Z,2.23
2019-01-03T04:43:50.781Z,2.00
2019-01-03T04:49:21.037Z,1.63
2019-01-03T04:54:40.109Z,1.60
2019-01-03T05:00:01.808Z,1.93
2019-01-03T05:05:29.916Z,2.10
2019-01-03T05:10:58.613Z,1.73
2019-01-03T05:16:19.189Z,2.03
2019-01-03T05:21:39.743Z,1.93
2019-01-03T05:27:02.083Z,2.10
2019-01-03T05:32:24.432Z,2.10
2019-01-03T05:37:56.634Z,2.33
2019-01-03T05:43:33.955Z,1.70
2019-01-03T05:48:49.106Z,1.80
2019-01-03T05:54:08.490Z,1.93
2019-01-03T05:59:31.807Z,1.80
2019-01-03T06:04:54.628Z,2.60
2019-01-03T06:10:15.319Z,1.83
2019-01-03T06:15:35.411Z,1.60
2019-01-03T06:21:15.070Z,1.60
2019-01-03T06:26:35.902Z,1.80
2019-01-03T06:32:00.575Z,1.77
2019-01-03T06:37:20.788Z,2.10
2019-01-03T06:42:45.200Z,2.23
2019-01-03T06:48:05.309Z,1.50
2019-01-03T06:53:34.956Z,1.53
2019-01-03T06:59:09.835Z,1.60
2019-01-03T07:04:36.008Z,1.67
2019-01-03T07:09:56.388Z,1.77
2019-01-03T07:15:22.178Z,1.60
2019-01-03T07:20:49.629Z,1.30
2019-01-03T07:26:06.325Z,1.70
2019-01-03T07:31:26.775Z,1.97
2019-01-03T07:36:42.841Z,1.87
2019-01-03T07:42:03.462Z,2.07
2019-01-03T07:47:21.707Z,2.23
2019-01-03T07:52:43.668Z,2.23
2019-01-03T07:58:11.510Z,1.63
2019-01-03T08:03:28.127Z,2.20
2019-01-03T08:08:49.030Z,2.30
2019-01-03T08:14:09.763Z,2.27
2019-01-03T08:19:40.738Z,2.63
2019-01-03T08:25:05.556Z,2.30
2019-01-03T08:30:18.783Z,2.03
2019-01-03T08:35:46.227Z,2.83
2019-01-03T08:41:06.556Z,2.43
2019-01-03T08:46:27.458Z,1.90
2019-01-03T08:51:52.135Z,2.30
2019-01-03T08:57:18.224Z,2.07
2019-01-03T09:02:46.252Z,2.37
2019-01-03T09:08:06.360Z,2.23
2019-01-03T09:13:28.839Z,2.63
2019-01-03T09:18:58.590Z,2.60
2019-01-03T09:24:19.107Z,2.60
2019-01-03T09:29:47.434Z,2.27
2019-01-03T09:34:58.194Z,5.23
2019-01-03T09:40:18.890Z,3.17
2019-01-03T09:45:21.019Z,2.30
2019-01-03T09:50:24.095Z,4.00
2019-01-03T09:55:26.476Z,4.00
2019-01-03T10:00:28.661Z,6.10
2019-01-03T10:05:30.842Z,5.77
2019-01-03T10:10:33.096Z,5.40
2019-01-03T10:15:35.608Z,4.10
2019-01-03T10:20:38.003Z,4.27
2019-01-03T10:25:40.163Z,4.47
2019-01-03T10:30:43.782Z,4.17
2019-01-03T10:35:45.971Z,8.10
2019-01-03T10:40:48.652Z,4.77
2019-01-03T10:45:51.251Z,4.10
2019-01-03T10:50:53.434Z,2.90
2019-01-03T10:55:55.625Z,4.63
2019-01-03T11:00:58.542Z,3.80
2019-01-03T11:06:01.034Z,2.90
2019-01-03T11:11:03.282Z,2.43
2019-01-03T11:16:05.580Z,3.17
2019-01-03T11:21:07.747Z,3.53
2019-01-03T11:26:10.154Z,3.57
2019-01-03T11:31:13.124Z,4.83
2019-01-03T11:36:15.368Z,3.80
2019-01-03T11:41:17.535Z,3.60
2019-01-03T11:46:20.180Z,3.00
2019-01-03T11:51:22.514Z,2.87
2019-01-03T11:56:24.799Z,2.57
2019-01-03T12:01:27.299Z,3.40
2019-01-03T12:06:30.098Z,2.67
2019-01-03T12:11:32.727Z,3.03
2019-01-03T12:16:35.177Z,2.47
2019-01-03T12:21:37.659Z,2.90
2019-01-03T12:26:40.260Z,2.67
2019-01-03T12:31:42.418Z,2.43
2019-01-03T12:36:45.381Z,2.70
2019-01-03T12:41:48.367Z,2.40
2019-01-03T12:46:50.509Z,2.60
2019-01-03T12:51:53.106Z,1.80
2019-01-03T12:56:55.990Z,2.33
2019-01-03T13:01:58.466Z,2.00
2019-01-03T13:07:01.612Z,4.37
2019-01-03T13:12:03.927Z,2.43
2019-01-03T13:17:06.078Z,2.27
2019-01-03T13:22:08.572Z,2.10
2019-01-03T13:27:11.066Z,2.30
2019-01-03T13:32:13.498Z,2.27
2019-01-03T13:37:16.118Z,2.23
2019-01-03T13:42:18.431Z,1.97
2019-01-03T13:47:20.756Z,2.17
2019-01-03T13:52:23.675Z,1.93
2019-01-03T13:57:26.322Z,3.07
2019-01-03T14:02:29.248Z,2.43
2019-01-03T14:07:31.491Z,3.00
2019-01-03T14:12:33.700Z,2.20
2019-01-03T14:17:36.640Z,2.20
2019-01-03T14:22:39.645Z,2.73
2019-01-03T14:27:42.192Z,2.80
2019-01-03T14:32:45.209Z,2.53
2019-01-03T14:37:47.399Z,2.83
2019-01-03T14:42:50.016Z,3.43
2019-01-03T14:47:52.448Z,4.13
2019-01-03T14:52:55.115Z,4.33
2019-01-03T14:57:57.272Z,3.77
2019-01-03T15:02:59.965Z,4.40
2019-01-03T15:08:02.306Z,4.10
2019-01-03T15:13:04.484Z,5.47
2019-01-03T15:18:06.877Z,5.13
2019-01-03T15:23:09.336Z,5.27
2019-01-03T15:28:12.587Z,5.63
2019-01-03T15:33:14.992Z,6.03
2019-01-03T15:38:18.267Z,5.13
2019-01-03T15:43:20.460Z,4.40
2019-01-03T15:48:22.730Z,5.23
2019-01-03T15:53:25.533Z,5.07
2019-01-03T15:58:27.644Z,4.57
2019-01-03T16:03:29.952Z,5.00
2019-01-03T16:08:32.332Z,4.90
2019-01-03T16:13:35.442Z,5.00
2019-01-03T16:18:38.305Z,5.30
2019-01-03T16:23:40.572Z,4.67
2019-01-03T16:28:43.273Z,5.40
2019-01-03T16:33:45.488Z,4.87
2019-01-03T16:38:47.629Z,5.20
2019-01-03T16:43:49.837Z,6.30
2019-01-03T16:48:52.251Z,5.43
2019-01-03T16:53:54.481Z,5.00
2019-01-03T16:58:57.688Z,4.67
2019-01-03T17:03:59.987Z,4.70
2019-01-03T17:09:03.655Z,5.33
2019-01-03T17:14:07.040Z,4.57
2019-01-03T17:19:09.427Z,5.00
2019-01-03T17:24:11.752Z,4.20
2019-01-03T17:29:14.392Z,4.80
2019-01-03T17:34:17.085Z,4.90
2019-01-03T17:39:19.224Z,5.07
2019-01-03T17:44:22.100Z,5.47
2019-01-03T17:49:24.563Z,5.20
2019-01-03T17:54:27.243Z,5.23
2019-01-03T17:59:29.700Z,5.80
2019-01-03T18:04:32.398Z,6.00
2019-01-03T18:09:34.717Z,6.50
2019-01-03T18:14:37.168Z,6.17
2019-01-03T18:19:39.866Z,7.40
2019-01-03T18:24:42.352Z,6.97
2019-01-03T18:29:45.126Z,7.90
2019-01-03T18:34:47.795Z,7.83
2019-01-03T18:39:50.693Z,6.80
2019-01-03T18:44:53.142Z,6.67
2019-01-03T18:49:55.842Z,7.17
2019-01-03T18:54:57.999Z,5.87
2019-01-03T19:00:00.243Z,6.77
2019-01-03T19:05:02.552Z,6.77
2019-01-03T19:10:07.474Z,6.43
2019-01-03T19:15:10.114Z,6.83
2019-01-03T19:20:13.647Z,6.47
2019-01-03T19:25:17.847Z,8.07
2019-01-03T19:30:20.652Z,10.70
2019-01-03T19:35:23.107Z,8.37
2019-01-03T19:40:25.263Z,8.23
2019-01-03T19:45:27.449Z,7.40
2019-01-03T19:50:29.703Z,7.77
2019-01-03T19:55:32.007Z,9.03
2019-01-03T20:00:34.422Z,7.67
2019-01-03T20:05:36.607Z,9.10
2019-01-03T20:10:38.783Z,7.40
2019-01-03T20:15:41.595Z,8.47
2019-01-03T20:20:43.864Z,8.80
2019-01-03T20:25:46.925Z,8.70
2019-01-03T20:30:49.707Z,14.50
2019-01-03T20:35:51.910Z,12.00
2019-01-03T20:40:54.708Z,8.80
2019-01-03T20:45:57.364Z,7.90
2019-01-03T20:50:59.688Z,7.43
2019-01-03T20:56:01.890Z,8.17
2019-01-03T21:01:04.085Z,7.97
2019-01-03T21:06:06.521Z,7.77
2019-01-03T21:11:08.966Z,6.93
2019-01-03T21:16:11.937Z,7.20
2019-01-03T21:21:14.533Z,7.30
2019-01-03T21:26:16.939Z,6.93
2019-01-03T21:31:19.087Z,5.97
2019-01-03T21:36:21.998Z,6.67
2019-01-03T21:41:24.651Z,6.70
2019-01-03T21:46:27.082Z,6.10
2019-01-03T21:51:29.565Z,5.93
2019-01-03T21:56:31.763Z,5.13
2019-01-03T22:01:34.027Z,5.33
2019-01-03T22:06:36.188Z,5.23
2019-01-03T22:11:38.936Z,4.37
2019-01-03T22:16:41.566Z,4.97
2019-01-03T22:21:44.210Z,4.50
2019-01-03T22:26:46.906Z,4.67
2019-01-03T22:31:50.075Z,6.50
2019-01-03T22:36:52.232Z,7.27
2019-01-03T22:41:54.935Z,6.77
2019-01-03T22:46:57.136Z,7.00
2019-01-03T22:51:59.317Z,7.27
2019-01-03T22:57:01.737Z,6.90
2019-01-03T23:02:04.444Z,7.13
2019-01-03T23:07:07.123Z,7.37
2019-01-03T23:12:09.911Z,7.20
2019-01-03T23:17:12.797Z,6.23
2019-01-03T23:22:15.203Z,5.20
2019-01-03T23:27:17.873Z,5.30
2019-01-03T23:32:21.082Z,5.03
2019-01-03T23:37:23.477Z,4.13
2019-01-03T23:42:25.941Z,4.40
2019-01-03T23:47:28.603Z,4.53
2019-01-03T23:52:31.299Z,4.90
2019-01-03T23:57:33.735Z,4.60
